sensor_id;sensor_type;location;lat;lon;timestamp;temperature;humidity
3550;DHT22;45572;48.804;8.330;2022-07-29T00:00:58;23.60;72.60
3550;DHT22;45572;48.804;8.330;2022-07-29T00:03:27;23.60;72.60
3550;DHT22;45572;48.804;8.330;2022-07-29T00:05:55;23.50;73.10
3550;DHT22;45572;48.804;8.330;2022-07-29T00:08:23;23.50;73.20
3550;DHT22;45572;48.804;8.330;2022-07-29T00:10:51;23.40;73.40
3550;DHT22;45572;48.804;8.330;2022-07-29T00:13:18;23.40;73.60
3550;DHT22;45572;48.804;8.330;2022-07-29T00:15:58;23.40;73.50
3550;DHT22;45572;48.804;8.330;2022-07-29T00:18:32;23.40;73.60
3550;DHT22;45572;48.804;8.330;2022-07-29T00:20:59;23.30;73.70
3550;DHT22;45572;48.804;8.330;2022-07-29T00:23:27;23.30;73.80
3550;DHT22;45572;48.804;8.330;2022-07-29T00:25:57;23.30;74.00
3550;DHT22;45572;48.804;8.330;2022-07-29T00:28:24;23.30;73.80
3550;DHT22;45572;48.804;8.330;2022-07-29T00:30:52;23.40;73.80
3550;DHT22;45572;48.804;8.330;2022-07-29T00:33:20;23.30;73.90
3550;DHT22;45572;48.804;8.330;2022-07-29T00:35:49;23.40;74.00
3550;DHT22;45572;48.804;8.330;2022-07-29T00:38:19;23.30;74.20
3550;DHT22;45572;48.804;8.330;2022-07-29T00:40:48;23.20;74.40
3550;DHT22;45572;48.804;8.330;2022-07-29T00:43:17;23.30;74.20
3550;DHT22;45572;48.804;8.330;2022-07-29T00:45:44;23.20;74.40
3550;DHT22;45572;48.804;8.330;2022-07-29T00:48:12;23.20;74.40
3550;DHT22;45572;48.804;8.330;2022-07-29T00:50:40;23.30;74.50
3550;DHT22;45572;48.804;8.330;2022-07-29T00:53:12;23.30;74.60
3550;DHT22;45572;48.804;8.330;2022-07-29T00:55:40;23.20;74.80
3550;DHT22;45572;48.804;8.330;2022-07-29T00:58:08;23.20;74.80
3550;DHT22;45572;48.804;8.330;2022-07-29T01:00:36;23.30;74.60
3550;DHT22;45572;48.804;8.330;2022-07-29T01:03:03;23.30;74.80
3550;DHT22;45572;48.804;8.330;2022-07-29T01:05:32;23.20;75.10
3550;DHT22;45572;48.804;8.330;2022-07-29T01:08:18;23.20;75.20
3550;DHT22;45572;48.804;8.330;2022-07-29T01:10:47;23.20;75.30
3550;DHT22;45572;48.804;8.330;2022-07-29T01:13:17;23.20;75.20
3550;DHT22;45572;48.804;8.330;2022-07-29T01:15:49;23.20;75.50
3550;DHT22;45572;48.804;8.330;2022-07-29T01:18:22;23.20;75.60
3550;DHT22;45572;48.804;8.330;2022-07-29T01:21:20;23.20;75.80
3550;DHT22;45572;48.804;8.330;2022-07-29T01:24:11;23.20;75.80
3550;DHT22;45572;48.804;8.330;2022-07-29T01:26:48;23.10;76.10
3550;DHT22;45572;48.804;8.330;2022-07-29T01:29:24;23.10;76.00
3550;DHT22;45572;48.804;8.330;2022-07-29T01:32:08;23.10;76.20
3550;DHT22;45572;48.804;8.330;2022-07-29T01:34:58;23.20;75.90
3550;DHT22;45572;48.804;8.330;2022-07-29T01:37:32;23.20;76.10
3550;DHT22;45572;48.804;8.330;2022-07-29T01:40:05;23.20;76.00
3550;DHT22;45572;48.804;8.330;2022-07-29T01:42:38;23.20;76.00
3550;DHT22;45572;48.804;8.330;2022-07-29T01:45:16;23.30;75.90
3550;DHT22;45572;48.804;8.330;2022-07-29T01:47:50;23.30;75.90
3550;DHT22;45572;48.804;8.330;2022-07-29T01:50:23;23.30;76.20
3550;DHT22;45572;48.804;8.330;2022-07-29T01:52:59;23.20;76.20
3550;DHT22;45572;48.804;8.330;2022-07-29T01:55:35;23.10;76.60
3550;DHT22;45572;48.804;8.330;2022-07-29T01:58:05;23.10;76.90
3550;DHT22;45572;48.804;8.330;2022-07-29T02:00:35;23.00;77.00
3550;DHT22;45572;48.804;8.330;2022-07-29T02:03:09;23.00;77.00
3550;DHT22;45572;48.804;8.330;2022-07-29T02:05:39;23.00;76.80
3550;DHT22;45572;48.804;8.330;2022-07-29T02:08:09;23.10;76.20
3550;DHT22;45572;48.804;8.330;2022-07-29T02:10:40;23.20;75.20
3550;DHT22;45572;48.804;8.330;2022-07-29T02:13:11;23.20;74.70
3550;DHT22;45572;48.804;8.330;2022-07-29T02:15:42;23.30;74.20
3550;DHT22;45572;48.804;8.330;2022-07-29T02:18:14;23.30;74.20
3550;DHT22;45572;48.804;8.330;2022-07-29T02:20:45;23.30;74.10
3550;DHT22;45572;48.804;8.330;2022-07-29T02:23:17;23.40;74.00
3550;DHT22;45572;48.804;8.330;2022-07-29T02:25:50;23.30;74.00
3550;DHT22;45572;48.804;8.330;2022-07-29T02:28:19;23.20;75.00
3550;DHT22;45572;48.804;8.330;2022-07-29T02:30:51;23.20;75.50
3550;DHT22;45572;48.804;8.330;2022-07-29T02:33:20;23.20;75.60
3550;DHT22;45572;48.804;8.330;2022-07-29T02:35:49;23.20;75.80
3550;DHT22;45572;48.804;8.330;2022-07-29T02:38:18;23.20;75.40
3550;DHT22;45572;48.804;8.330;2022-07-29T02:41:02;23.20;75.20
3550;DHT22;45572;48.804;8.330;2022-07-29T02:43:33;23.20;75.50
3550;DHT22;45572;48.804;8.330;2022-07-29T02:46:05;22.90;76.80
3550;DHT22;45572;48.804;8.330;2022-07-29T02:48:58;22.90;77.00
3550;DHT22;45572;48.804;8.330;2022-07-29T02:51:32;22.80;77.30
3550;DHT22;45572;48.804;8.330;2022-07-29T02:54:11;22.70;77.80
3550;DHT22;45572;48.804;8.330;2022-07-29T02:56:44;22.50;77.40
3550;DHT22;45572;48.804;8.330;2022-07-29T02:59:14;22.50;77.60
3550;DHT22;45572;48.804;8.330;2022-07-29T03:01:47;22.50;77.90
3550;DHT22;45572;48.804;8.330;2022-07-29T03:04:17;22.40;77.60
3550;DHT22;45572;48.804;8.330;2022-07-29T03:06:49;22.20;78.20
3550;DHT22;45572;48.804;8.330;2022-07-29T03:09:19;22.00;78.70
3550;DHT22;45572;48.804;8.330;2022-07-29T03:11:47;21.90;78.90
3550;DHT22;45572;48.804;8.330;2022-07-29T03:14:18;21.60;79.60
3550;DHT22;45572;48.804;8.330;2022-07-29T03:16:49;21.60;79.70
3550;DHT22;45572;48.804;8.330;2022-07-29T03:19:18;21.60;80.00
3550;DHT22;45572;48.804;8.330;2022-07-29T03:21:47;21.60;80.10
3550;DHT22;45572;48.804;8.330;2022-07-29T03:24:31;21.40;80.50
3550;DHT22;45572;48.804;8.330;2022-07-29T03:26:59;21.30;81.00
3550;DHT22;45572;48.804;8.330;2022-07-29T03:29:28;21.30;81.00
3550;DHT22;45572;48.804;8.330;2022-07-29T03:32:02;21.20;81.10
3550;DHT22;45572;48.804;8.330;2022-07-29T03:34:35;21.00;81.60
3550;DHT22;45572;48.804;8.330;2022-07-29T03:37:03;21.10;81.60
3550;DHT22;45572;48.804;8.330;2022-07-29T03:39:35;21.00;81.60
3550;DHT22;45572;48.804;8.330;2022-07-29T03:42:04;21.10;81.70
3550;DHT22;45572;48.804;8.330;2022-07-29T03:44:34;21.10;81.70
3550;DHT22;45572;48.804;8.330;2022-07-29T03:47:06;21.20;81.40
3550;DHT22;45572;48.804;8.330;2022-07-29T03:49:36;21.10;81.70
3550;DHT22;45572;48.804;8.330;2022-07-29T03:52:05;21.20;81.60
3550;DHT22;45572;48.804;8.330;2022-07-29T03:54:33;20.90;82.20
3550;DHT22;45572;48.804;8.330;2022-07-29T03:57:02;20.80;82.40
3550;DHT22;45572;48.804;8.330;2022-07-29T03:59:32;20.90;82.30
3550;DHT22;45572;48.804;8.330;2022-07-29T04:02:01;20.80;82.40
3550;DHT22;45572;48.804;8.330;2022-07-29T04:04:33;20.80;82.50
3550;DHT22;45572;48.804;8.330;2022-07-29T04:07:01;20.60;83.00
3550;DHT22;45572;48.804;8.330;2022-07-29T04:09:30;20.70;83.10
3550;DHT22;45572;48.804;8.330;2022-07-29T04:11:58;20.70;83.20
3550;DHT22;45572;48.804;8.330;2022-07-29T04:14:30;20.80;83.20
3550;DHT22;45572;48.804;8.330;2022-07-29T04:16:58;20.80;83.10
3550;DHT22;45572;48.804;8.330;2022-07-29T04:19:28;20.80;83.20
3550;DHT22;45572;48.804;8.330;2022-07-29T04:21:58;20.80;83.20
3550;DHT22;45572;48.804;8.330;2022-07-29T04:24:27;20.80;83.30
3550;DHT22;45572;48.804;8.330;2022-07-29T04:26:55;20.80;83.40
3550;DHT22;45572;48.804;8.330;2022-07-29T04:29:23;20.80;83.50
3550;DHT22;45572;48.804;8.330;2022-07-29T04:31:50;20.90;83.60
3550;DHT22;45572;48.804;8.330;2022-07-29T04:34:18;21.00;83.40
3550;DHT22;45572;48.804;8.330;2022-07-29T04:36:54;21.00;83.40
3550;DHT22;45572;48.804;8.330;2022-07-29T04:39:23;21.10;83.40
3550;DHT22;45572;48.804;8.330;2022-07-29T04:41:53;21.10;83.10
3550;DHT22;45572;48.804;8.330;2022-07-29T04:44:22;21.20;82.30
3550;DHT22;45572;48.804;8.330;2022-07-29T04:46:55;21.30;82.00
3550;DHT22;45572;48.804;8.330;2022-07-29T04:49:23;21.20;82.30
3550;DHT22;45572;48.804;8.330;2022-07-29T04:51:51;21.30;82.40
3550;DHT22;45572;48.804;8.330;2022-07-29T04:54:19;21.10;82.60
3550;DHT22;45572;48.804;8.330;2022-07-29T04:56:48;21.10;82.80
3550;DHT22;45572;48.804;8.330;2022-07-29T04:59:16;21.10;82.80
3550;DHT22;45572;48.804;8.330;2022-07-29T05:01:43;21.10;82.90
3550;DHT22;45572;48.804;8.330;2022-07-29T05:04:11;21.10;83.00
3550;DHT22;45572;48.804;8.330;2022-07-29T05:06:40;21.10;83.00
3550;DHT22;45572;48.804;8.330;2022-07-29T05:09:07;21.00;83.20
3550;DHT22;45572;48.804;8.330;2022-07-29T05:11:35;21.00;83.60
3550;DHT22;45572;48.804;8.330;2022-07-29T05:14:04;21.00;83.70
3550;DHT22;45572;48.804;8.330;2022-07-29T05:16:32;21.10;83.50
3550;DHT22;45572;48.804;8.330;2022-07-29T05:19:00;21.10;83.30
3550;DHT22;45572;48.804;8.330;2022-07-29T05:21:28;21.20;83.10
3550;DHT22;45572;48.804;8.330;2022-07-29T05:23:55;21.10;83.40
3550;DHT22;45572;48.804;8.330;2022-07-29T05:26:23;21.30;83.10
3550;DHT22;45572;48.804;8.330;2022-07-29T05:28:52;21.30;83.10
3550;DHT22;45572;48.804;8.330;2022-07-29T05:31:21;21.20;83.20
3550;DHT22;45572;48.804;8.330;2022-07-29T05:33:49;21.30;82.90
3550;DHT22;45572;48.804;8.330;2022-07-29T05:36:17;21.50;82.70
3550;DHT22;45572;48.804;8.330;2022-07-29T05:38:45;21.70;82.30
3550;DHT22;45572;48.804;8.330;2022-07-29T05:41:12;22.00;82.10
3550;DHT22;45572;48.804;8.330;2022-07-29T05:43:40;22.30;80.90
3550;DHT22;45572;48.804;8.330;2022-07-29T05:46:08;22.20;81.00
3550;DHT22;45572;48.804;8.330;2022-07-29T05:48:37;22.20;80.70
3550;DHT22;45572;48.804;8.330;2022-07-29T05:51:05;22.20;81.00
3550;DHT22;45572;48.804;8.330;2022-07-29T05:53:33;22.30;80.60
3550;DHT22;45572;48.804;8.330;2022-07-29T05:56:04;22.40;79.70
3550;DHT22;45572;48.804;8.330;2022-07-29T05:58:32;22.60;79.50
3550;DHT22;45572;48.804;8.330;2022-07-29T06:01:05;22.60;79.20
3550;DHT22;45572;48.804;8.330;2022-07-29T06:03:33;22.50;79.70
3550;DHT22;45572;48.804;8.330;2022-07-29T06:06:06;22.70;79.00
3550;DHT22;45572;48.804;8.330;2022-07-29T06:08:35;23.10;78.40
3550;DHT22;45572;48.804;8.330;2022-07-29T06:11:04;23.40;76.80
3550;DHT22;45572;48.804;8.330;2022-07-29T06:13:32;23.60;76.40
3550;DHT22;45572;48.804;8.330;2022-07-29T06:15:59;23.80;75.60
3550;DHT22;45572;48.804;8.330;2022-07-29T06:18:27;24.30;74.20
3550;DHT22;45572;48.804;8.330;2022-07-29T06:20:55;24.60;73.60
3550;DHT22;45572;48.804;8.330;2022-07-29T06:23:24;24.30;74.50
3550;DHT22;45572;48.804;8.330;2022-07-29T06:25:52;24.40;73.90
3550;DHT22;45572;48.804;8.330;2022-07-29T06:28:20;24.70;73.30
3550;DHT22;45572;48.804;8.330;2022-07-29T06:30:48;24.90;72.40
3550;DHT22;45572;48.804;8.330;2022-07-29T06:33:17;25.10;72.30
3550;DHT22;45572;48.804;8.330;2022-07-29T06:35:45;25.50;70.90
3550;DHT22;45572;48.804;8.330;2022-07-29T06:38:21;26.40;69.20
3550;DHT22;45572;48.804;8.330;2022-07-29T06:40:59;27.40;66.40
3550;DHT22;45572;48.804;8.330;2022-07-29T06:43:29;28.00;64.40
3550;DHT22;45572;48.804;8.330;2022-07-29T06:46:00;28.60;62.90
3550;DHT22;45572;48.804;8.330;2022-07-29T06:48:28;28.60;60.10
3550;DHT22;45572;48.804;8.330;2022-07-29T06:50:56;28.60;59.90
3550;DHT22;45572;48.804;8.330;2022-07-29T06:53:24;29.20;58.50
3550;DHT22;45572;48.804;8.330;2022-07-29T06:56:01;28.50;61.10
3550;DHT22;45572;48.804;8.330;2022-07-29T06:58:30;29.30;58.20
3550;DHT22;45572;48.804;8.330;2022-07-29T07:01:00;28.70;59.10
3550;DHT22;45572;48.804;8.330;2022-07-29T07:03:28;29.10;57.50
3550;DHT22;45572;48.804;8.330;2022-07-29T07:05:56;29.30;57.80
3550;DHT22;45572;48.804;8.330;2022-07-29T07:08:25;29.40;58.00
3550;DHT22;45572;48.804;8.330;2022-07-29T07:10:53;29.50;58.20
3550;DHT22;45572;48.804;8.330;2022-07-29T07:13:23;29.70;58.20
3550;DHT22;45572;48.804;8.330;2022-07-29T07:15:50;30.00;57.00
3550;DHT22;45572;48.804;8.330;2022-07-29T07:18:19;30.30;55.00
3550;DHT22;45572;48.804;8.330;2022-07-29T07:20:47;30.90;55.30
3550;DHT22;45572;48.804;8.330;2022-07-29T07:23:15;31.40;53.70
3550;DHT22;45572;48.804;8.330;2022-07-29T07:25:43;31.60;53.70
3550;DHT22;45572;48.804;8.330;2022-07-29T07:28:11;31.50;52.00
3550;DHT22;45572;48.804;8.330;2022-07-29T07:30:40;31.40;52.60
3550;DHT22;45572;48.804;8.330;2022-07-29T07:33:08;31.30;53.60
3550;DHT22;45572;48.804;8.330;2022-07-29T07:35:36;31.10;53.10
3550;DHT22;45572;48.804;8.330;2022-07-29T07:38:04;31.70;52.20
3550;DHT22;45572;48.804;8.330;2022-07-29T07:40:33;32.10;50.60
3550;DHT22;45572;48.804;8.330;2022-07-29T07:43:01;32.50;49.70
3550;DHT22;45572;48.804;8.330;2022-07-29T07:45:29;32.60;49.20
3550;DHT22;45572;48.804;8.330;2022-07-29T07:48:00;32.30;49.30
3550;DHT22;45572;48.804;8.330;2022-07-29T07:50:28;32.60;49.40
3550;DHT22;45572;48.804;8.330;2022-07-29T07:52:56;32.60;49.30
3550;DHT22;45572;48.804;8.330;2022-07-29T07:55:25;31.90;48.20
3550;DHT22;45572;48.804;8.330;2022-07-29T07:57:54;31.80;49.80
3550;DHT22;45572;48.804;8.330;2022-07-29T08:00:22;32.00;49.50
3550;DHT22;45572;48.804;8.330;2022-07-29T08:02:50;32.10;49.20
3550;DHT22;45572;48.804;8.330;2022-07-29T08:05:19;32.30;49.20
3550;DHT22;45572;48.804;8.330;2022-07-29T08:07:47;32.50;48.40
3550;DHT22;45572;48.804;8.330;2022-07-29T08:10:15;32.70;47.70
3550;DHT22;45572;48.804;8.330;2022-07-29T08:13:04;33.20;47.80
3550;DHT22;45572;48.804;8.330;2022-07-29T08:15:32;34.00;46.80
3550;DHT22;45572;48.804;8.330;2022-07-29T08:18:00;34.30;46.50
3550;DHT22;45572;48.804;8.330;2022-07-29T08:20:36;34.60;45.90
3550;DHT22;45572;48.804;8.330;2022-07-29T08:23:07;34.70;45.70
3550;DHT22;45572;48.804;8.330;2022-07-29T08:25:36;35.40;45.20
3550;DHT22;45572;48.804;8.330;2022-07-29T08:28:06;36.20;44.00
3550;DHT22;45572;48.804;8.330;2022-07-29T08:30:34;37.20;43.20
3550;DHT22;45572;48.804;8.330;2022-07-29T08:33:02;37.70;42.40
3550;DHT22;45572;48.804;8.330;2022-07-29T08:35:30;38.60;41.40
3550;DHT22;45572;48.804;8.330;2022-07-29T08:38:03;39.60;40.20
3550;DHT22;45572;48.804;8.330;2022-07-29T08:40:31;40.60;38.10
3550;DHT22;45572;48.804;8.330;2022-07-29T08:43:04;41.00;37.60
3550;DHT22;45572;48.804;8.330;2022-07-29T08:45:42;41.00;38.10
3550;DHT22;45572;48.804;8.330;2022-07-29T08:48:15;40.30;38.30
3550;DHT22;45572;48.804;8.330;2022-07-29T08:50:47;40.10;38.20
3550;DHT22;45572;48.804;8.330;2022-07-29T08:53:17;40.10;38.60
3550;DHT22;45572;48.804;8.330;2022-07-29T08:55:48;40.20;39.10
3550;DHT22;45572;48.804;8.330;2022-07-29T08:58:17;40.00;38.40
3550;DHT22;45572;48.804;8.330;2022-07-29T09:00:54;40.40;38.90
3550;DHT22;45572;48.804;8.330;2022-07-29T09:03:29;40.00;38.20
3550;DHT22;45572;48.804;8.330;2022-07-29T09:05:58;39.90;38.30
3550;DHT22;45572;48.804;8.330;2022-07-29T09:08:28;40.10;38.30
3550;DHT22;45572;48.804;8.330;2022-07-29T09:10:56;40.10;37.70
3550;DHT22;45572;48.804;8.330;2022-07-29T09:13:25;40.40;38.10
3550;DHT22;45572;48.804;8.330;2022-07-29T09:15:53;40.70;37.70
3550;DHT22;45572;48.804;8.330;2022-07-29T09:18:37;41.10;36.70
3550;DHT22;45572;48.804;8.330;2022-07-29T09:21:06;41.20;37.20
3550;DHT22;45572;48.804;8.330;2022-07-29T09:24:05;41.80;36.30
3550;DHT22;45572;48.804;8.330;2022-07-29T09:26:35;42.10;35.40
3550;DHT22;45572;48.804;8.330;2022-07-29T09:29:12;42.20;34.70
3550;DHT22;45572;48.804;8.330;2022-07-29T09:31:42;42.70;35.50
3550;DHT22;45572;48.804;8.330;2022-07-29T09:34:11;42.40;34.60
3550;DHT22;45572;48.804;8.330;2022-07-29T09:36:41;42.90;35.00
3550;DHT22;45572;48.804;8.330;2022-07-29T09:39:12;43.00;34.40
3550;DHT22;45572;48.804;8.330;2022-07-29T09:41:45;42.80;34.10
3550;DHT22;45572;48.804;8.330;2022-07-29T09:44:14;42.70;34.50
3550;DHT22;45572;48.804;8.330;2022-07-29T09:46:56;42.30;34.70
3550;DHT22;45572;48.804;8.330;2022-07-29T09:49:25;41.90;35.10
3550;DHT22;45572;48.804;8.330;2022-07-29T09:52:04;41.00;35.10
3550;DHT22;45572;48.804;8.330;2022-07-29T09:54:34;40.60;35.90
3550;DHT22;45572;48.804;8.330;2022-07-29T09:57:04;39.60;36.20
3550;DHT22;45572;48.804;8.330;2022-07-29T09:59:33;38.80;38.40
3550;DHT22;45572;48.804;8.330;2022-07-29T10:02:01;39.30;38.50
3550;DHT22;45572;48.804;8.330;2022-07-29T10:04:39;38.70;37.20
3550;DHT22;45572;48.804;8.330;2022-07-29T10:07:08;38.80;38.80
3550;DHT22;45572;48.804;8.330;2022-07-29T10:09:37;38.30;38.70
3550;DHT22;45572;48.804;8.330;2022-07-29T10:12:07;39.00;38.20
3550;DHT22;45572;48.804;8.330;2022-07-29T10:14:37;39.90;37.50
3550;DHT22;45572;48.804;8.330;2022-07-29T10:17:06;41.00;36.30
3550;DHT22;45572;48.804;8.330;2022-07-29T10:19:36;42.10;35.40
3550;DHT22;45572;48.804;8.330;2022-07-29T10:22:06;42.80;33.80
3550;DHT22;45572;48.804;8.330;2022-07-29T10:24:35;43.10;34.40
3550;DHT22;45572;48.804;8.330;2022-07-29T10:27:06;43.50;33.60
3550;DHT22;45572;48.804;8.330;2022-07-29T10:29:34;43.60;32.90
3550;DHT22;45572;48.804;8.330;2022-07-29T10:32:28;43.00;33.80
3550;DHT22;45572;48.804;8.330;2022-07-29T10:35:15;42.50;34.60
3550;DHT22;45572;48.804;8.330;2022-07-29T10:37:57;41.70;35.40
3550;DHT22;45572;48.804;8.330;2022-07-29T10:40:39;40.80;37.10
3550;DHT22;45572;48.804;8.330;2022-07-29T10:43:29;40.60;36.20
3550;DHT22;45572;48.804;8.330;2022-07-29T10:46:00;39.20;37.70
3550;DHT22;45572;48.804;8.330;2022-07-29T10:48:28;39.10;37.50
3550;DHT22;45572;48.804;8.330;2022-07-29T10:50:58;38.40;39.20
3550;DHT22;45572;48.804;8.330;2022-07-29T10:53:46;37.70;39.20
3550;DHT22;45572;48.804;8.330;2022-07-29T10:56:30;38.00;38.90
3550;DHT22;45572;48.804;8.330;2022-07-29T10:59:24;37.50;40.40
3550;DHT22;45572;48.804;8.330;2022-07-29T11:02:01;38.70;38.70
3550;DHT22;45572;48.804;8.330;2022-07-29T11:05:05;40.20;37.90
3550;DHT22;45572;48.804;8.330;2022-07-29T11:07:36;40.70;35.20
3550;DHT22;45572;48.804;8.330;2022-07-29T11:10:27;41.70;34.70
3550;DHT22;45572;48.804;8.330;2022-07-29T11:12:57;42.70;34.40
3550;DHT22;45572;48.804;8.330;2022-07-29T11:15:26;43.00;33.20
3550;DHT22;45572;48.804;8.330;2022-07-29T11:18:06;41.80;34.00
3550;DHT22;45572;48.804;8.330;2022-07-29T11:20:49;41.30;36.20
3550;DHT22;45572;48.804;8.330;2022-07-29T11:23:23;41.50;34.30
3550;DHT22;45572;48.804;8.330;2022-07-29T11:28:58;41.70;34.80
3550;DHT22;45572;48.804;8.330;2022-07-29T11:31:38;40.80;35.80
3550;DHT22;45572;48.804;8.330;2022-07-29T11:34:23;40.70;36.60
3550;DHT22;45572;48.804;8.330;2022-07-29T11:37:18;38.70;39.00
3550;DHT22;45572;48.804;8.330;2022-07-29T11:40:10;39.60;37.70
3550;DHT22;45572;48.804;8.330;2022-07-29T11:42:42;39.40;37.70
3550;DHT22;45572;48.804;8.330;2022-07-29T11:45:12;40.00;37.50
3550;DHT22;45572;48.804;8.330;2022-07-29T11:48:03;40.10;37.10
3550;DHT22;45572;48.804;8.330;2022-07-29T11:50:52;39.20;38.20
3550;DHT22;45572;48.804;8.330;2022-07-29T11:53:21;38.50;38.90
3550;DHT22;45572;48.804;8.330;2022-07-29T11:55:54;38.70;39.00
3550;DHT22;45572;48.804;8.330;2022-07-29T11:58:24;38.20;38.30
3550;DHT22;45572;48.804;8.330;2022-07-29T12:00:53;37.60;38.70
3550;DHT22;45572;48.804;8.330;2022-07-29T12:03:26;37.30;38.60
3550;DHT22;45572;48.804;8.330;2022-07-29T12:06:03;36.50;38.70
3550;DHT22;45572;48.804;8.330;2022-07-29T12:08:40;36.10;40.40
3550;DHT22;45572;48.804;8.330;2022-07-29T12:11:15;35.80;40.50
3550;DHT22;45572;48.804;8.330;2022-07-29T12:13:47;35.50;39.60
3550;DHT22;45572;48.804;8.330;2022-07-29T12:16:16;35.30;39.60
3550;DHT22;45572;48.804;8.330;2022-07-29T12:18:58;34.80;41.10
3550;DHT22;45572;48.804;8.330;2022-07-29T12:21:28;34.30;40.80
3550;DHT22;45572;48.804;8.330;2022-07-29T12:23:57;33.40;41.50
3550;DHT22;45572;48.804;8.330;2022-07-29T12:26:35;33.50;42.40
3550;DHT22;45572;48.804;8.330;2022-07-29T12:29:07;33.40;42.80
3550;DHT22;45572;48.804;8.330;2022-07-29T12:32:00;32.90;42.90
3550;DHT22;45572;48.804;8.330;2022-07-29T12:34:30;32.70;43.60
3550;DHT22;45572;48.804;8.330;2022-07-29T12:37:02;32.40;42.80
3550;DHT22;45572;48.804;8.330;2022-07-29T12:39:30;31.90;43.70
3550;DHT22;45572;48.804;8.330;2022-07-29T12:41:58;31.60;45.10
3550;DHT22;45572;48.804;8.330;2022-07-29T12:44:44;31.70;44.50
3550;DHT22;45572;48.804;8.330;2022-07-29T12:47:12;31.70;44.40
3550;DHT22;45572;48.804;8.330;2022-07-29T12:49:41;31.70;45.20
3550;DHT22;45572;48.804;8.330;2022-07-29T12:52:25;32.00;44.60
3550;DHT22;45572;48.804;8.330;2022-07-29T12:54:56;31.90;44.60
3550;DHT22;45572;48.804;8.330;2022-07-29T12:57:24;31.80;43.70
3550;DHT22;45572;48.804;8.330;2022-07-29T13:00:03;31.80;45.10
3550;DHT22;45572;48.804;8.330;2022-07-29T13:02:31;31.70;44.80
3550;DHT22;45572;48.804;8.330;2022-07-29T13:05:01;31.90;44.60
3550;DHT22;45572;48.804;8.330;2022-07-29T13:07:32;32.00;44.00
3550;DHT22;45572;48.804;8.330;2022-07-29T13:10:21;32.20;44.50
3550;DHT22;45572;48.804;8.330;2022-07-29T13:13:06;32.40;44.40
3550;DHT22;45572;48.804;8.330;2022-07-29T13:15:36;32.30;44.30
3550;DHT22;45572;48.804;8.330;2022-07-29T13:18:05;32.50;45.00
3550;DHT22;45572;48.804;8.330;2022-07-29T13:20:54;32.70;43.80
3550;DHT22;45572;48.804;8.330;2022-07-29T13:23:22;32.90;43.60
3550;DHT22;45572;48.804;8.330;2022-07-29T13:25:50;32.90;43.00
3550;DHT22;45572;48.804;8.330;2022-07-29T13:28:19;32.40;43.20
3550;DHT22;45572;48.804;8.330;2022-07-29T13:30:47;32.50;44.30
3550;DHT22;45572;48.804;8.330;2022-07-29T13:33:15;32.50;43.20
3550;DHT22;45572;48.804;8.330;2022-07-29T13:35:43;32.60;44.20
3550;DHT22;45572;48.804;8.330;2022-07-29T13:38:12;32.60;42.90
3550;DHT22;45572;48.804;8.330;2022-07-29T13:40:40;32.50;43.40
3550;DHT22;45572;48.804;8.330;2022-07-29T13:43:09;32.60;43.70
3550;DHT22;45572;48.804;8.330;2022-07-29T13:45:37;32.60;44.20
3550;DHT22;45572;48.804;8.330;2022-07-29T13:48:06;32.30;43.50
3550;DHT22;45572;48.804;8.330;2022-07-29T13:50:33;32.20;43.30
3550;DHT22;45572;48.804;8.330;2022-07-29T13:53:01;32.20;45.20
3550;DHT22;45572;48.804;8.330;2022-07-29T13:55:45;32.20;43.60
3550;DHT22;45572;48.804;8.330;2022-07-29T13:58:43;32.00;44.00
3550;DHT22;45572;48.804;8.330;2022-07-29T14:01:12;31.90;44.50
3550;DHT22;45572;48.804;8.330;2022-07-29T14:03:41;31.90;43.80
3550;DHT22;45572;48.804;8.330;2022-07-29T14:06:11;31.80;43.80
3550;DHT22;45572;48.804;8.330;2022-07-29T14:08:39;31.80;44.00
3550;DHT22;45572;48.804;8.330;2022-07-29T14:11:09;31.90;44.00
3550;DHT22;45572;48.804;8.330;2022-07-29T14:13:36;31.90;44.00
3550;DHT22;45572;48.804;8.330;2022-07-29T14:16:05;32.10;44.10
3550;DHT22;45572;48.804;8.330;2022-07-29T14:18:33;32.10;44.20
3550;DHT22;45572;48.804;8.330;2022-07-29T14:21:01;32.10;44.10
3550;DHT22;45572;48.804;8.330;2022-07-29T14:23:29;32.10;44.20
3550;DHT22;45572;48.804;8.330;2022-07-29T14:26:00;32.00;43.80
3550;DHT22;45572;48.804;8.330;2022-07-29T14:28:29;31.20;44.10
3550;DHT22;45572;48.804;8.330;2022-07-29T14:30:57;31.00;45.00
3550;DHT22;45572;48.804;8.330;2022-07-29T14:33:25;31.00;45.50
3550;DHT22;45572;48.804;8.330;2022-07-29T14:35:56;30.90;45.00
3550;DHT22;45572;48.804;8.330;2022-07-29T14:38:27;30.90;45.00
3550;DHT22;45572;48.804;8.330;2022-07-29T14:41:00;30.80;46.00
3550;DHT22;45572;48.804;8.330;2022-07-29T14:43:29;30.80;45.00
3550;DHT22;45572;48.804;8.330;2022-07-29T14:45:57;30.80;44.70
3550;DHT22;45572;48.804;8.330;2022-07-29T14:48:30;30.70;44.40
3550;DHT22;45572;48.804;8.330;2022-07-29T14:50:58;30.70;44.50
3550;DHT22;45572;48.804;8.330;2022-07-29T14:53:31;30.60;45.50
3550;DHT22;45572;48.804;8.330;2022-07-29T14:55:59;30.80;45.90
3550;DHT22;45572;48.804;8.330;2022-07-29T14:58:49;30.60;45.70
3550;DHT22;45572;48.804;8.330;2022-07-29T15:01:17;30.70;44.80
3550;DHT22;45572;48.804;8.330;2022-07-29T15:03:46;30.80;45.00
3550;DHT22;45572;48.804;8.330;2022-07-29T15:06:13;30.90;44.60
3550;DHT22;45572;48.804;8.330;2022-07-29T15:08:41;30.60;45.00
3550;DHT22;45572;48.804;8.330;2022-07-29T15:11:09;30.80;45.80
3550;DHT22;45572;48.804;8.330;2022-07-29T15:13:37;30.80;45.80
3550;DHT22;45572;48.804;8.330;2022-07-29T15:16:07;31.00;46.20
3550;DHT22;45572;48.804;8.330;2022-07-29T15:18:36;30.90;45.90
3550;DHT22;45572;48.804;8.330;2022-07-29T15:21:05;30.90;46.20
3550;DHT22;45572;48.804;8.330;2022-07-29T15:23:34;30.40;45.80
3550;DHT22;45572;48.804;8.330;2022-07-29T15:26:03;30.10;46.60
3550;DHT22;45572;48.804;8.330;2022-07-29T15:28:31;30.10;46.80
3550;DHT22;45572;48.804;8.330;2022-07-29T15:30:58;30.40;47.40
3550;DHT22;45572;48.804;8.330;2022-07-29T15:33:27;30.30;45.80
3550;DHT22;45572;48.804;8.330;2022-07-29T15:35:56;30.40;47.50
3550;DHT22;45572;48.804;8.330;2022-07-29T15:38:23;30.50;47.80
3550;DHT22;45572;48.804;8.330;2022-07-29T15:40:54;30.50;47.30
3550;DHT22;45572;48.804;8.330;2022-07-29T15:43:22;30.60;47.10
3550;DHT22;45572;48.804;8.330;2022-07-29T15:45:52;30.80;47.60
3550;DHT22;45572;48.804;8.330;2022-07-29T15:48:37;30.90;46.90
3550;DHT22;45572;48.804;8.330;2022-07-29T15:51:05;31.00;47.00
3550;DHT22;45572;48.804;8.330;2022-07-29T15:53:33;30.80;47.10
3550;DHT22;45572;48.804;8.330;2022-07-29T15:56:01;30.80;47.30
3550;DHT22;45572;48.804;8.330;2022-07-29T15:58:29;30.70;47.60
3550;DHT22;45572;48.804;8.330;2022-07-29T16:00:57;30.60;47.00
3550;DHT22;45572;48.804;8.330;2022-07-29T16:03:25;30.50;47.40
3550;DHT22;45572;48.804;8.330;2022-07-29T16:05:54;30.50;48.00
3550;DHT22;45572;48.804;8.330;2022-07-29T16:08:21;30.50;48.20
3550;DHT22;45572;48.804;8.330;2022-07-29T16:10:49;30.50;48.30
3550;DHT22;45572;48.804;8.330;2022-07-29T16:13:17;30.50;47.10
3550;DHT22;45572;48.804;8.330;2022-07-29T16:15:46;30.20;47.50